This is the latest recevied weather packets stored in our database for station/object ZL3GL-4. If no packets are shown the sender has not sent any weather packets the latest 10 day(s).
| Time | Temp. | Humidity | Pressure | Rain* | Wind** | Luminosity | Snow |
|---|---|---|---|---|---|---|---|
| 1777885216 | 7.78° C | 100% | 1032.5 hPa | 0 mm | 0 m/s | - | - |
| 1777884375 | 8.33° C | 100% | 1032.5 hPa | 0 mm | 0 m/s | - | - |
| 1777883532 | 8.33° C | 100% | 1032.6 hPa | 0 mm | 0.89 m/s, 321° | - | - |
| 1777882691 | 8.33° C | 100% | 1032.6 hPa | 0 mm | 0.89 m/s, 284° | - | - |
| 1777881844 | 8.33° C | 100% | 1032.5 hPa | 0 mm | 0 m/s | - | - |
| 1777881001 | 8.33° C | 100% | 1032.5 hPa | 0 mm | 0.89 m/s, 342° | - | - |
| 1777880155 | 8.33° C | 100% | 1032.4 hPa | 0 mm | 0.89 m/s, 339° | - | - |
| 1777879311 | 8.33° C | 100% | 1032.2 hPa | 0 mm | 0.45 m/s, 340° | - | - |
| 1777878466 | 8.89° C | 100% | 1032.1 hPa | 0 mm | 0.45 m/s, 315° | - | - |
| 1777877626 | 8.89° C | 100% | 1031.8 hPa | 0 mm | 0 m/s | - | - |
| 1777876778 | 9.44° C | 99% | 1031.6 hPa | 0 mm | 0 m/s | - | - |
| 1777875938 | 9.44° C | 99% | 1031.3 hPa | 0 mm | 0 m/s | - | - |
| 1777875092 | 9.44° C | 98% | 1031.2 hPa | 0 mm | 0 m/s | - | - |
| 1777874248 | 10° C | 98% | 1031 hPa | 0 mm | 0 m/s | - | - |
| 1777873407 | 10.56° C | 98% | 1031 hPa | 0 mm | 0.45 m/s, 23° | - | - |
| 1777872562 | 10.56° C | 97% | 1030.9 hPa | 0 mm | 0.45 m/s, 11° | - | - |
| 1777871718 | 11.11° C | 96% | 1031 hPa | 0 mm | 1.34 m/s, 17° | - | - |
| 1777870874 | 11.67° C | 96% | 1031 hPa | 0 mm | 0.45 m/s, 69° | - | - |
| 1777870030 | 12.22° C | 95% | 1031 hPa | 0 mm | 0.89 m/s, 69° | - | - |
| 1777869185 | 12.22° C | 94% | 1031 hPa | 0 mm | 0.89 m/s, 13° | - | - |
| 1777868345 | 12.78° C | 92% | 1031 hPa | 0 mm | 0.45 m/s, 21° | - | - |
| 1777867499 | 12.78° C | 92% | 1030.9 hPa | 0 mm | 1.34 m/s, 68° | - | - |
| 1777866654 | 12.78° C | 92% | 1030.8 hPa | 0 mm | 1.79 m/s, 353° | - | - |
| 1777865814 | 12.78° C | 92% | 1030.7 hPa | 0 mm | 1.34 m/s, 314° | - | - |
| 1777864968 | 12.78° C | 91% | 1030.7 hPa | 0 mm | 0.89 m/s, 20° | - | - |
* Rain latest hour (hover to see other rain measurements)
** Current wind speed in m/s (hover to see current wind gust speed)